sensor_id;sensor_type;location;lat;lon;timestamp;pressure;altitude;pressure_sealevel;temperature;humidity
18819;BME280;9537;45.594;9.294;2022-11-27T00:00:09;100951.75;;;3.39;83.98
18819;BME280;9537;45.594;9.294;2022-11-27T00:01:13;100955.00;;;3.43;84.18
18819;BME280;9537;45.594;9.294;2022-11-27T00:02:17;100950.63;;;3.44;84.00
18819;BME280;9537;45.594;9.294;2022-11-27T00:03:19;100949.78;;;3.43;83.90
18819;BME280;9537;45.594;9.294;2022-11-27T00:04:20;100949.78;;;3.43;83.95
18819;BME280;9537;45.594;9.294;2022-11-27T00:05:22;100957.72;;;3.42;83.82
18819;BME280;9537;45.594;9.294;2022-11-27T00:06:25;100957.16;;;3.36;84.05
18819;BME280;9537;45.594;9.294;2022-11-27T00:07:27;100957.81;;;3.40;84.09
18819;BME280;9537;45.594;9.294;2022-11-27T00:08:29;100957.72;;;3.42;84.06
18819;BME280;9537;45.594;9.294;2022-11-27T00:09:30;100960.34;;;3.42;83.86
18819;BME280;9537;45.594;9.294;2022-11-27T00:10:32;100955.94;;;3.42;83.88
18819;BME280;9537;45.594;9.294;2022-11-27T00:11:33;100952.56;;;3.40;84.21
18819;BME280;9537;45.594;9.294;2022-11-27T00:12:35;100956.06;;;3.41;84.04
18819;BME280;9537;45.594;9.294;2022-11-27T00:13:38;100950.91;;;3.39;83.99
18819;BME280;9537;45.594;9.294;2022-11-27T00:14:39;100959.69;;;3.38;84.15
18819;BME280;9537;45.594;9.294;2022-11-27T00:15:41;100955.31;;;3.38;84.11
18819;BME280;9537;45.594;9.294;2022-11-27T00:16:44;100958.00;;;3.37;84.40
18819;BME280;9537;45.594;9.294;2022-11-27T00:17:46;100961.63;;;3.34;84.46
18819;BME280;9537;45.594;9.294;2022-11-27T00:18:47;100960.78;;;3.34;84.61
18819;BME280;9537;45.594;9.294;2022-11-27T00:19:49;100961.56;;;3.36;84.64
18819;BME280;9537;45.594;9.294;2022-11-27T00:20:50;100957.09;;;3.38;84.62
18819;BME280;9537;45.594;9.294;2022-11-27T00:21:52;100962.19;;;3.39;84.49
18819;BME280;9537;45.594;9.294;2022-11-27T00:22:53;100957.59;;;3.43;84.37
18819;BME280;9537;45.594;9.294;2022-11-27T00:23:58;100960.22;;;3.43;84.28
18819;BME280;9537;45.594;9.294;2022-11-27T00:24:59;100955.09;;;3.42;84.18
18819;BME280;9537;45.594;9.294;2022-11-27T00:26:02;100956.88;;;3.41;84.38
18819;BME280;9537;45.594;9.294;2022-11-27T00:27:04;100957.09;;;3.38;84.56
18819;BME280;9537;45.594;9.294;2022-11-27T00:28:06;100956.22;;;3.37;84.87
18819;BME280;9537;45.594;9.294;2022-11-27T00:29:07;100951.94;;;3.36;84.92
18819;BME280;9537;45.594;9.294;2022-11-27T00:30:10;100952.50;;;3.42;84.79
18819;BME280;9537;45.594;9.294;2022-11-27T00:31:13;100951.66;;;3.41;83.89
18819;BME280;9537;45.594;9.294;2022-11-27T00:32:17;100944.09;;;3.36;84.08
18819;BME280;9537;45.594;9.294;2022-11-27T00:33:18;100950.47;;;3.32;84.24
18819;BME280;9537;45.594;9.294;2022-11-27T00:34:20;100940.22;;;3.29;84.43
18819;BME280;9537;45.594;9.294;2022-11-27T00:35:22;100944.03;;;3.24;84.06
18819;BME280;9537;45.594;9.294;2022-11-27T00:36:23;100945.78;;;3.23;84.44
18819;BME280;9537;45.594;9.294;2022-11-27T00:37:26;100945.13;;;3.20;84.89
18819;BME280;9537;45.594;9.294;2022-11-27T00:38:27;100936.56;;;3.17;84.92
18819;BME280;9537;45.594;9.294;2022-11-27T00:39:29;100940.94;;;3.17;84.88
18819;BME280;9537;45.594;9.294;2022-11-27T00:40:31;100940.03;;;3.18;84.62
18819;BME280;9537;45.594;9.294;2022-11-27T00:41:32;100939.09;;;3.19;84.51
18819;BME280;9537;45.594;9.294;2022-11-27T00:42:34;100947.19;;;3.14;84.71
18819;BME280;9537;45.594;9.294;2022-11-27T00:43:37;100937.69;;;3.13;84.56
18819;BME280;9537;45.594;9.294;2022-11-27T00:44:39;100933.59;;;3.09;84.25
18819;BME280;9537;45.594;9.294;2022-11-27T00:45:40;100930.13;;;3.09;84.56
18819;BME280;9537;45.594;9.294;2022-11-27T00:46:42;100930.59;;;3.01;84.69
18819;BME280;9537;45.594;9.294;2022-11-27T00:47:45;100936.47;;;3.05;84.91
18819;BME280;9537;45.594;9.294;2022-11-27T00:48:47;100928.38;;;3.09;85.11
18819;BME280;9537;45.594;9.294;2022-11-27T00:49:48;100928.06;;;3.14;84.48
18819;BME280;9537;45.594;9.294;2022-11-27T00:50:50;100918.97;;;3.07;84.36
18819;BME280;9537;45.594;9.294;2022-11-27T00:51:51;100925.38;;;3.01;84.38
18819;BME280;9537;45.594;9.294;2022-11-27T00:52:53;100922.03;;;2.99;85.17
18819;BME280;9537;45.594;9.294;2022-11-27T00:53:54;100930.69;;;3.00;85.17
18819;BME280;9537;45.594;9.294;2022-11-27T00:54:56;100926.03;;;3.05;85.10
18819;BME280;9537;45.594;9.294;2022-11-27T00:55:58;100930.41;;;3.04;85.10
18819;BME280;9537;45.594;9.294;2022-11-27T00:57:00;100928.72;;;3.03;85.40
18819;BME280;9537;45.594;9.294;2022-11-27T00:58:02;100927.63;;;3.07;85.50
18819;BME280;9537;45.594;9.294;2022-11-27T00:59:05;100926.88;;;3.05;85.27
18819;BME280;9537;45.594;9.294;2022-11-27T01:00:08;100922.41;;;3.07;85.50
18819;BME280;9537;45.594;9.294;2022-11-27T01:01:14;100920.44;;;3.11;85.72
18819;BME280;9537;45.594;9.294;2022-11-27T01:02:16;100916.91;;;3.12;85.39
18819;BME280;9537;45.594;9.294;2022-11-27T01:03:21;100915.84;;;3.14;85.64
18819;BME280;9537;45.594;9.294;2022-11-27T01:04:22;100915.84;;;3.14;85.24
18819;BME280;9537;45.594;9.294;2022-11-27T01:05:24;100922.97;;;3.12;85.61
18819;BME280;9537;45.594;9.294;2022-11-27T01:06:26;100915.84;;;3.14;85.38
18819;BME280;9537;45.594;9.294;2022-11-27T01:07:28;100917.75;;;3.12;85.25
18819;BME280;9537;45.594;9.294;2022-11-27T01:08:29;100917.75;;;3.12;85.06
18819;BME280;9537;45.594;9.294;2022-11-27T01:09:31;100918.56;;;3.13;84.57
18819;BME280;9537;45.594;9.294;2022-11-27T01:10:32;100917.94;;;3.09;84.14
18819;BME280;9537;45.594;9.294;2022-11-27T01:11:34;100913.72;;;3.07;84.44
18819;BME280;9537;45.594;9.294;2022-11-27T01:12:36;100912.78;;;3.08;84.13
18819;BME280;9537;45.594;9.294;2022-11-27T01:13:37;100914.31;;;3.12;84.34
18819;BME280;9537;45.594;9.294;2022-11-27T01:14:40;100909.44;;;3.06;84.60
18819;BME280;9537;45.594;9.294;2022-11-27T01:15:41;100914.75;;;3.04;84.59
18819;BME280;9537;45.594;9.294;2022-11-27T01:16:43;100917.38;;;3.04;84.43
18819;BME280;9537;45.594;9.294;2022-11-27T01:17:44;100913.72;;;3.07;84.42
18819;BME280;9537;45.594;9.294;2022-11-27T01:18:49;100911.31;;;3.04;84.39
18819;BME280;9537;45.594;9.294;2022-11-27T01:19:50;100917.25;;;3.06;84.04
18819;BME280;9537;45.594;9.294;2022-11-27T01:20:52;100925.19;;;3.04;83.94
18819;BME280;9537;45.594;9.294;2022-11-27T01:21:54;100915.66;;;3.03;84.27
18819;BME280;9537;45.594;9.294;2022-11-27T01:22:56;100922.84;;;3.00;84.29
18819;BME280;9537;45.594;9.294;2022-11-27T01:23:58;100928.06;;;3.00;83.78
18819;BME280;9537;45.594;9.294;2022-11-27T01:25:00;100920.53;;;2.95;84.35
18819;BME280;9537;45.594;9.294;2022-11-27T01:26:03;100929.41;;;2.92;83.86
18819;BME280;9537;45.594;9.294;2022-11-27T01:27:05;100925.94;;;2.92;84.33
18819;BME280;9537;45.594;9.294;2022-11-27T01:28:07;100928.72;;;2.89;84.72
18819;BME280;9537;45.594;9.294;2022-11-27T01:29:09;100926.22;;;2.87;85.23
18819;BME280;9537;45.594;9.294;2022-11-27T01:30:12;100939.16;;;2.89;85.03
18819;BME280;9537;45.594;9.294;2022-11-27T01:31:15;100934.88;;;2.88;85.55
18819;BME280;9537;45.594;9.294;2022-11-27T01:32:17;100928.72;;;2.89;85.80
18819;BME280;9537;45.594;9.294;2022-11-27T01:33:18;100922.59;;;2.90;85.57
18819;BME280;9537;45.594;9.294;2022-11-27T01:34:22;100929.66;;;2.88;86.25
18819;BME280;9537;45.594;9.294;2022-11-27T01:35:23;100923.41;;;2.90;86.12
18819;BME280;9537;45.594;9.294;2022-11-27T01:36:26;100928.44;;;2.93;85.85
18819;BME280;9537;45.594;9.294;2022-11-27T01:37:27;100920.63;;;2.93;86.14
18819;BME280;9537;45.594;9.294;2022-11-27T01:38:30;100923.16;;;2.95;85.45
18819;BME280;9537;45.594;9.294;2022-11-27T01:39:31;100917.19;;;2.93;84.83
18819;BME280;9537;45.594;9.294;2022-11-27T01:40:33;100910.94;;;2.96;84.88
18819;BME280;9537;45.594;9.294;2022-11-27T01:41:36;100921.09;;;3.00;84.89
18819;BME280;9537;45.594;9.294;2022-11-27T01:42:39;100918.47;;;3.00;84.66
18819;BME280;9537;45.594;9.294;2022-11-27T01:43:42;100921.38;;;2.96;84.71
18819;BME280;9537;45.594;9.294;2022-11-27T01:44:51;100931.16;;;2.92;84.70
18819;BME280;9537;45.594;9.294;2022-11-27T01:45:53;100922.59;;;2.90;84.69
18819;BME280;9537;45.594;9.294;2022-11-27T01:46:57;100922.00;;;2.85;84.64
18819;BME280;9537;45.594;9.294;2022-11-27T01:48:00;100923.03;;;2.82;84.51
18819;BME280;9537;45.594;9.294;2022-11-27T01:49:28;100925.75;;;2.81;85.11
18819;BME280;9537;45.594;9.294;2022-11-27T01:50:33;100921.38;;;2.81;85.19
18819;BME280;9537;45.594;9.294;2022-11-27T01:51:38;100922.19;;;2.82;85.43
18819;BME280;9537;45.594;9.294;2022-11-27T01:52:44;100923.88;;;2.83;85.14
18819;BME280;9537;45.594;9.294;2022-11-27T01:53:50;100921.38;;;2.81;85.29
18819;BME280;9537;45.594;9.294;2022-11-27T01:54:55;100916.91;;;2.83;85.67
18819;BME280;9537;45.594;9.294;2022-11-27T01:56:00;100923.88;;;2.83;85.19
18819;BME280;9537;45.594;9.294;2022-11-27T01:57:05;100923.97;;;2.81;85.54
18819;BME280;9537;45.594;9.294;2022-11-27T01:58:09;100929.19;;;2.81;85.07
18819;BME280;9537;45.594;9.294;2022-11-27T01:59:13;100925.75;;;2.81;85.22
18819;BME280;9537;45.594;9.294;2022-11-27T02:00:17;100923.16;;;2.81;85.14
18819;BME280;9537;45.594;9.294;2022-11-27T02:01:19;100927.41;;;2.82;85.55
18819;BME280;9537;45.594;9.294;2022-11-27T02:02:20;100924.06;;;2.80;84.86
18819;BME280;9537;45.594;9.294;2022-11-27T02:03:22;100915.84;;;2.86;85.07
18819;BME280;9537;45.594;9.294;2022-11-27T02:04:24;100922.13;;;2.83;84.82
18819;BME280;9537;45.594;9.294;2022-11-27T02:05:28;100910.00;;;2.82;84.81
18819;BME280;9537;45.594;9.294;2022-11-27T02:06:29;100916.34;;;2.78;85.47
18819;BME280;9537;45.594;9.294;2022-11-27T02:07:31;100915.50;;;2.78;85.48
18819;BME280;9537;45.594;9.294;2022-11-27T02:08:32;100914.81;;;2.74;85.77
18819;BME280;9537;45.594;9.294;2022-11-27T02:09:34;100911.38;;;2.74;85.63
18819;BME280;9537;45.594;9.294;2022-11-27T02:10:43;100911.19;;;2.77;85.47
18819;BME280;9537;45.594;9.294;2022-11-27T02:11:53;100912.91;;;2.78;85.97
18819;BME280;9537;45.594;9.294;2022-11-27T02:12:58;100902.53;;;2.76;85.78
18819;BME280;9537;45.594;9.294;2022-11-27T02:14:06;100904.88;;;2.81;85.95
18819;BME280;9537;45.594;9.294;2022-11-27T02:15:15;100903.19;;;2.80;86.30
18819;BME280;9537;45.594;9.294;2022-11-27T02:16:27;100893.50;;;2.82;86.06
18819;BME280;9537;45.594;9.294;2022-11-27T02:17:35;100896.03;;;2.83;85.34
18819;BME280;9537;45.594;9.294;2022-11-27T02:18:44;100891.66;;;2.84;85.40
18819;BME280;9537;45.594;9.294;2022-11-27T02:20:16;100891.66;;;2.84;85.45
18819;BME280;9537;45.594;9.294;2022-11-27T02:21:23;100888.03;;;2.86;85.96
18819;BME280;9537;45.594;9.294;2022-11-27T02:22:35;100883.72;;;2.85;84.98
18819;BME280;9537;45.594;9.294;2022-11-27T02:24:06;100891.84;;;2.81;85.03
18819;BME280;9537;45.594;9.294;2022-11-27T02:25:19;100903.38;;;2.77;85.27
18819;BME280;9537;45.594;9.294;2022-11-27T02:28:14;100905.16;;;2.76;85.26
18819;BME280;9537;45.594;9.294;2022-11-27T02:29:25;100898.97;;;2.77;85.18
18819;BME280;9537;45.594;9.294;2022-11-27T02:30:31;100891.34;;;2.74;85.06
18819;BME280;9537;45.594;9.294;2022-11-27T02:31:39;100885.09;;;2.77;84.97
18819;BME280;9537;45.594;9.294;2022-11-27T02:32:46;100897.97;;;2.80;85.04
18819;BME280;9537;45.594;9.294;2022-11-27T02:33:52;100891.44;;;2.73;84.98
18819;BME280;9537;45.594;9.294;2022-11-27T02:35:00;100885.66;;;2.67;85.23
18819;BME280;9537;45.594;9.294;2022-11-27T02:36:07;100892.72;;;2.65;85.69
18819;BME280;9537;45.594;9.294;2022-11-27T02:37:13;100900.38;;;2.68;85.48
18819;BME280;9537;45.594;9.294;2022-11-27T02:38:22;100894.06;;;2.73;85.71
18819;BME280;9537;45.594;9.294;2022-11-27T02:39:31;100895.34;;;2.80;85.58
18819;BME280;9537;45.594;9.294;2022-11-27T02:40:38;100892.03;;;2.78;84.86
18819;BME280;9537;45.594;9.294;2022-11-27T02:41:46;100891.28;;;2.76;84.68
18819;BME280;9537;45.594;9.294;2022-11-27T02:42:54;100886.25;;;2.73;84.73
18819;BME280;9537;45.594;9.294;2022-11-27T02:43:57;100885.28;;;2.74;84.83
18819;BME280;9537;45.594;9.294;2022-11-27T02:45:05;100876.63;;;2.73;85.19
18819;BME280;9537;45.594;9.294;2022-11-27T02:46:09;100868.88;;;2.71;85.89
18819;BME280;9537;45.594;9.294;2022-11-27T02:47:13;100872.06;;;2.77;85.87
18819;BME280;9537;45.594;9.294;2022-11-27T02:48:17;100872.88;;;2.77;85.96
18819;BME280;9537;45.594;9.294;2022-11-27T02:49:21;100859.84;;;2.77;85.71
18819;BME280;9537;45.594;9.294;2022-11-27T02:50:24;100857.34;;;2.76;86.16
18819;BME280;9537;45.594;9.294;2022-11-27T02:51:29;100857.53;;;2.73;85.86
18819;BME280;9537;45.594;9.294;2022-11-27T02:52:33;100854.28;;;2.69;85.66
18819;BME280;9537;45.594;9.294;2022-11-27T02:53:42;100857.81;;;2.68;86.09
18819;BME280;9537;45.594;9.294;2022-11-27T02:54:47;100856.72;;;2.72;85.98
18819;BME280;9537;45.594;9.294;2022-11-27T02:55:52;100854.38;;;2.67;85.60
18819;BME280;9537;45.594;9.294;2022-11-27T02:56:55;100852.50;;;2.69;85.52
18819;BME280;9537;45.594;9.294;2022-11-27T02:58:01;100852.88;;;2.63;85.77
18819;BME280;9537;45.594;9.294;2022-11-27T02:59:06;100842.06;;;2.69;85.75
18819;BME280;9537;45.594;9.294;2022-11-27T03:00:12;100847.94;;;2.73;85.47
18819;BME280;9537;45.594;9.294;2022-11-27T03:01:14;100853.34;;;2.70;85.85
18819;BME280;9537;45.594;9.294;2022-11-27T03:02:19;100855.00;;;2.71;85.93
18819;BME280;9537;45.594;9.294;2022-11-27T03:03:28;100856.50;;;2.75;85.65
18819;BME280;9537;45.594;9.294;2022-11-27T03:04:38;100859.97;;;2.76;85.27
18819;BME280;9537;45.594;9.294;2022-11-27T03:05:45;100865.19;;;2.76;84.96
18819;BME280;9537;45.594;9.294;2022-11-27T03:06:51;100870.66;;;2.71;85.04
18819;BME280;9537;45.594;9.294;2022-11-27T03:07:59;100863.97;;;2.67;84.95
18819;BME280;9537;45.594;9.294;2022-11-27T03:09:06;100864.53;;;2.58;84.95
18819;BME280;9537;45.594;9.294;2022-11-27T03:10:13;100868.34;;;2.52;85.29
18819;BME280;9537;45.594;9.294;2022-11-27T03:11:18;100874.47;;;2.51;85.12
18819;BME280;9537;45.594;9.294;2022-11-27T03:12:19;100876.34;;;2.49;84.94
18819;BME280;9537;45.594;9.294;2022-11-27T03:13:21;100880.63;;;2.50;85.07
18819;BME280;9537;45.594;9.294;2022-11-27T03:14:23;100881.91;;;2.43;85.73
18819;BME280;9537;45.594;9.294;2022-11-27T03:15:31;100881.00;;;2.44;85.16
18819;BME280;9537;45.594;9.294;2022-11-27T03:16:40;100878.38;;;2.44;84.85
18819;BME280;9537;45.594;9.294;2022-11-27T03:17:50;100885.63;;;2.39;85.61
18819;BME280;9537;45.594;9.294;2022-11-27T03:18:57;100883.78;;;2.41;85.42
18819;BME280;9537;45.594;9.294;2022-11-27T03:20:06;100879.97;;;2.46;85.93
18819;BME280;9537;45.594;9.294;2022-11-27T03:21:15;100889.38;;;2.49;85.78
18819;BME280;9537;45.594;9.294;2022-11-27T03:22:19;100880.63;;;2.50;85.51
18819;BME280;9537;45.594;9.294;2022-11-27T03:23:21;100883.22;;;2.50;85.78
18819;BME280;9537;45.594;9.294;2022-11-27T03:24:22;100889.28;;;2.51;86.41
18819;BME280;9537;45.594;9.294;2022-11-27T03:25:25;100884.06;;;2.51;86.47
18819;BME280;9537;45.594;9.294;2022-11-27T03:26:26;100880.44;;;2.53;86.70
18819;BME280;9537;45.594;9.294;2022-11-27T03:27:31;100882.84;;;2.56;86.14
18819;BME280;9537;45.594;9.294;2022-11-27T03:28:33;100876.81;;;2.56;86.41
18819;BME280;9537;45.594;9.294;2022-11-27T03:29:38;100878.66;;;2.54;86.20
18819;BME280;9537;45.594;9.294;2022-11-27T03:30:42;100884.53;;;2.57;86.19
18819;BME280;9537;45.594;9.294;2022-11-27T03:31:44;100881.09;;;2.57;85.88
18819;BME280;9537;45.594;9.294;2022-11-27T03:32:45;100882.03;;;2.56;85.09
18819;BME280;9537;45.594;9.294;2022-11-27T03:33:47;100884.63;;;2.56;85.14
18819;BME280;9537;45.594;9.294;2022-11-27T03:34:49;100885.47;;;2.56;85.26
18819;BME280;9537;45.594;9.294;2022-11-27T03:35:51;100873.44;;;2.54;85.05
18819;BME280;9537;45.594;9.294;2022-11-27T03:36:52;100876.41;;;2.47;85.04
18819;BME280;9537;45.594;9.294;2022-11-27T03:37:55;100876.59;;;2.44;85.72
18819;BME280;9537;45.594;9.294;2022-11-27T03:38:56;100874.06;;;2.43;85.41
18819;BME280;9537;45.594;9.294;2022-11-27T03:39:58;100872.78;;;2.36;85.57
18819;BME280;9537;45.594;9.294;2022-11-27T03:41:07;100877.63;;;2.42;85.79
18819;BME280;9537;45.594;9.294;2022-11-27T03:42:22;100865.41;;;2.42;85.42
18819;BME280;9537;45.594;9.294;2022-11-27T03:43:28;100879.03;;;2.47;85.43
18819;BME280;9537;45.594;9.294;2022-11-27T03:44:37;100867.94;;;2.44;84.94
18819;BME280;9537;45.594;9.294;2022-11-27T03:45:51;100871.09;;;2.35;85.99
18819;BME280;9537;45.594;9.294;2022-11-27T03:47:04;100866.97;;;2.31;85.96
18819;BME280;9537;45.594;9.294;2022-11-27T03:48:16;100873.03;;;2.31;85.93
18819;BME280;9537;45.594;9.294;2022-11-27T03:49:24;100866.16;;;2.30;86.25
18819;BME280;9537;45.594;9.294;2022-11-27T03:50:35;100869.59;;;2.31;85.90
18819;BME280;9537;45.594;9.294;2022-11-27T03:51:46;100866.34;;;2.27;86.23
18819;BME280;9537;45.594;9.294;2022-11-27T03:52:58;100875.75;;;2.30;86.43
18819;BME280;9537;45.594;9.294;2022-11-27T03:54:04;100868.56;;;2.33;86.09
18819;BME280;9537;45.594;9.294;2022-11-27T03:55:15;100869.34;;;2.35;86.19
18819;BME280;9537;45.594;9.294;2022-11-27T03:56:28;100876.31;;;2.35;86.34
18819;BME280;9537;45.594;9.294;2022-11-27T03:57:34;100874.72;;;2.32;87.18
18819;BME280;9537;45.594;9.294;2022-11-27T03:58:42;100872.00;;;2.34;87.08
18819;BME280;9537;45.594;9.294;2022-11-27T03:59:49;100873.78;;;2.33;86.89
18819;BME280;9537;45.594;9.294;2022-11-27T04:00:55;100872.97;;;2.33;86.50
18819;BME280;9537;45.594;9.294;2022-11-27T04:01:59;100866.72;;;2.35;86.29
18819;BME280;9537;45.594;9.294;2022-11-27T04:03:02;100879.75;;;2.35;86.64
18819;BME280;9537;45.594;9.294;2022-11-27T04:04:04;100875.63;;;2.31;86.53
18819;BME280;9537;45.594;9.294;2022-11-27T04:05:06;100875.56;;;2.33;86.02
18819;BME280;9537;45.594;9.294;2022-11-27T04:06:08;100872.97;;;2.33;86.47
18819;BME280;9537;45.594;9.294;2022-11-27T04:07:15;100878.25;;;2.31;86.51
18819;BME280;9537;45.594;9.294;2022-11-27T04:08:17;100883.56;;;2.30;86.22
18819;BME280;9537;45.594;9.294;2022-11-27T04:09:18;100875.75;;;2.30;86.61
18819;BME280;9537;45.594;9.294;2022-11-27T04:10:21;100882.63;;;2.31;86.42
18819;BME280;9537;45.594;9.294;2022-11-27T04:11:22;100878.16;;;2.33;86.09
18819;BME280;9537;45.594;9.294;2022-11-27T04:12:24;100887.84;;;2.31;86.46
18819;BME280;9537;45.594;9.294;2022-11-27T04:13:25;100880.66;;;2.34;86.42
18819;BME280;9537;45.594;9.294;2022-11-27T04:14:27;100885.22;;;2.31;86.44
18819;BME280;9537;45.594;9.294;2022-11-27T04:15:28;100881.53;;;2.35;86.11
18819;BME280;9537;45.594;9.294;2022-11-27T04:16:31;100888.03;;;2.28;86.73
18819;BME280;9537;45.594;9.294;2022-11-27T04:17:32;100891.56;;;2.27;86.51
18819;BME280;9537;45.594;9.294;2022-11-27T04:18:34;100896.84;;;2.25;86.67
18819;BME280;9537;45.594;9.294;2022-11-27T04:19:35;100890.81;;;2.24;86.71
18819;BME280;9537;45.594;9.294;2022-11-27T04:20:37;100891.56;;;2.27;86.81
18819;BME280;9537;45.594;9.294;2022-11-27T04:21:38;100891.47;;;2.28;86.79
18819;BME280;9537;45.594;9.294;2022-11-27T04:22:40;100882.63;;;2.31;86.76
18819;BME280;9537;45.594;9.294;2022-11-27T04:23:42;100892.13;;;2.32;86.77
18819;BME280;9537;45.594;9.294;2022-11-27T04:24:44;100874.72;;;2.32;86.67
18819;BME280;9537;45.594;9.294;2022-11-27T04:25:45;100884.28;;;2.32;86.88
18819;BME280;9537;45.594;9.294;2022-11-27T04:26:46;100872.19;;;2.31;86.74
18819;BME280;9537;45.594;9.294;2022-11-27T04:27:49;100871.19;;;2.33;87.18
18819;BME280;9537;45.594;9.294;2022-11-27T04:28:50;100877.34;;;2.32;86.69
18819;BME280;9537;45.594;9.294;2022-11-27T04:29:52;100874.44;;;2.37;86.81
18819;BME280;9537;45.594;9.294;2022-11-27T04:30:53;100870.06;;;2.37;86.67
18819;BME280;9537;45.594;9.294;2022-11-27T04:31:57;100876.88;;;2.40;86.79
18819;BME280;9537;45.594;9.294;2022-11-27T04:32:58;100876.69;;;2.43;86.86
18819;BME280;9537;45.594;9.294;2022-11-27T04:34:00;100875.84;;;2.42;86.81
18819;BME280;9537;45.594;9.294;2022-11-27T04:35:01;100874.06;;;2.43;86.65
18819;BME280;9537;45.594;9.294;2022-11-27T04:36:03;100876.03;;;2.39;86.60
18819;BME280;9537;45.594;9.294;2022-11-27T04:37:04;100873.25;;;2.42;86.50
18819;BME280;9537;45.594;9.294;2022-11-27T04:38:06;100875.00;;;2.42;86.47
18819;BME280;9537;45.594;9.294;2022-11-27T04:39:07;100873.53;;;2.38;86.33
18819;BME280;9537;45.594;9.294;2022-11-27T04:40:10;100870.75;;;2.41;85.71
18819;BME280;9537;45.594;9.294;2022-11-27T04:41:11;100871.47;;;2.43;85.13
18819;BME280;9537;45.594;9.294;2022-11-27T04:42:13;100871.19;;;2.33;84.93
18819;BME280;9537;45.594;9.294;2022-11-27T04:43:14;100871.38;;;2.30;85.38
18819;BME280;9537;45.594;9.294;2022-11-27T04:44:16;100872.44;;;2.26;85.16
18819;BME280;9537;45.594;9.294;2022-11-27T04:45:17;100875.34;;;2.21;85.28
18819;BME280;9537;45.594;9.294;2022-11-27T04:46:19;100876.44;;;2.17;85.91
18819;BME280;9537;45.594;9.294;2022-11-27T04:47:22;100872.16;;;2.16;85.69
18819;BME280;9537;45.594;9.294;2022-11-27T04:48:24;100865.28;;;2.15;85.90
18819;BME280;9537;45.594;9.294;2022-11-27T04:49:26;100874.88;;;2.15;85.86
18819;BME280;9537;45.594;9.294;2022-11-27T04:50:28;100874.94;;;2.13;85.63
18819;BME280;9537;45.594;9.294;2022-11-27T04:51:29;100874.13;;;2.13;86.10
18819;BME280;9537;45.594;9.294;2022-11-27T04:52:31;100876.63;;;2.14;85.84
18819;BME280;9537;45.594;9.294;2022-11-27T04:53:32;100873.53;;;2.08;85.97
18819;BME280;9537;45.594;9.294;2022-11-27T04:54:35;100878.75;;;2.08;86.33
18819;BME280;9537;45.594;9.294;2022-11-27T04:55:36;100877.72;;;2.10;86.36
18819;BME280;9537;45.594;9.294;2022-11-27T04:56:38;100876.78;;;2.11;86.85
18819;BME280;9537;45.594;9.294;2022-11-27T04:57:39;100878.50;;;2.12;86.61
18819;BME280;9537;45.594;9.294;2022-11-27T04:58:41;100875.78;;;2.14;86.94
18819;BME280;9537;45.594;9.294;2022-11-27T04:59:42;100881.19;;;2.11;87.20
18819;BME280;9537;45.594;9.294;2022-11-27T05:00:44;100880.53;;;2.07;87.03
18819;BME280;9537;45.594;9.294;2022-11-27T05:01:47;100881.19;;;2.11;87.23
18819;BME280;9537;45.594;9.294;2022-11-27T05:02:51;100885.38;;;2.13;86.90
18819;BME280;9537;45.594;9.294;2022-11-27T05:03:52;100887.31;;;2.10;87.00
18819;BME280;9537;45.594;9.294;2022-11-27T05:04:54;100889.75;;;2.13;87.07
18819;BME280;9537;45.594;9.294;2022-11-27T05:05:55;100885.31;;;2.15;87.23
18819;BME280;9537;45.594;9.294;2022-11-27T05:06:58;100886.03;;;2.17;87.15
18819;BME280;9537;45.594;9.294;2022-11-27T05:07:59;100885.00;;;2.19;87.10
18819;BME280;9537;45.594;9.294;2022-11-27T05:09:01;100884.19;;;2.19;87.50
18819;BME280;9537;45.594;9.294;2022-11-27T05:10:03;100894.44;;;2.22;87.42
18819;BME280;9537;45.594;9.294;2022-11-27T05:11:06;100886.59;;;2.22;87.53
18819;BME280;9537;45.594;9.294;2022-11-27T05:12:07;100886.22;;;2.14;88.07
18819;BME280;9537;45.594;9.294;2022-11-27T05:13:09;100888.75;;;2.15;88.10
18819;BME280;9537;45.594;9.294;2022-11-27T05:14:13;100886.78;;;2.19;87.42
18819;BME280;9537;45.594;9.294;2022-11-27T05:15:19;100889.22;;;2.22;87.91
18819;BME280;9537;45.594;9.294;2022-11-27T05:16:20;100888.38;;;2.21;86.84
18819;BME280;9537;45.594;9.294;2022-11-27T05:17:22;100885.78;;;2.21;87.32
18819;BME280;9537;45.594;9.294;2022-11-27T05:18:25;100883.94;;;2.23;86.86
18819;BME280;9537;45.594;9.294;2022-11-27T05:19:29;100882.16;;;2.24;86.81
18819;BME280;9537;45.594;9.294;2022-11-27T05:20:30;100884.94;;;2.21;86.71
18819;BME280;9537;45.594;9.294;2022-11-27T05:21:32;100887.22;;;2.11;86.25
18819;BME280;9537;45.594;9.294;2022-11-27T05:22:33;100887.41;;;2.08;87.02
18819;BME280;9537;45.594;9.294;2022-11-27T05:23:35;100896.06;;;2.09;86.62
18819;BME280;9537;45.594;9.294;2022-11-27T05:24:36;100894.50;;;2.06;86.78
18819;BME280;9537;45.594;9.294;2022-11-27T05:25:38;100892.13;;;2.01;86.90
18819;BME280;9537;45.594;9.294;2022-11-27T05:26:40;100898.94;;;2.04;86.32
18819;BME280;9537;45.594;9.294;2022-11-27T05:27:42;100897.25;;;2.03;85.85
18819;BME280;9537;45.594;9.294;2022-11-27T05:28:43;100900.72;;;2.03;86.49
18819;BME280;9537;45.594;9.294;2022-11-27T05:29:45;100901.38;;;2.07;85.82
18819;BME280;9537;45.594;9.294;2022-11-27T05:30:47;100904.91;;;2.06;86.22
18819;BME280;9537;45.594;9.294;2022-11-27T05:31:49;100898.94;;;2.04;85.79
18819;BME280;9537;45.594;9.294;2022-11-27T05:32:50;100899.84;;;2.03;86.10
18819;BME280;9537;45.594;9.294;2022-11-27T05:33:54;100905.25;;;2.00;85.69
18819;BME280;9537;45.594;9.294;2022-11-27T05:34:55;100906.19;;;1.99;86.09
18819;BME280;9537;45.594;9.294;2022-11-27T05:35:57;100895.69;;;2.00;86.15
18819;BME280;9537;45.594;9.294;2022-11-27T05:36:58;100897.34;;;2.01;85.97
18819;BME280;9537;45.594;9.294;2022-11-27T05:38:00;100901.53;;;2.04;86.46
18819;BME280;9537;45.594;9.294;2022-11-27T05:39:02;100898.34;;;1.99;86.42
18819;BME280;9537;45.594;9.294;2022-11-27T05:40:07;100896.19;;;1.91;86.66
18819;BME280;9537;45.594;9.294;2022-11-27T05:41:08;100896.88;;;1.95;86.90
18819;BME280;9537;45.594;9.294;2022-11-27T05:42:10;100900.19;;;1.97;87.12
18819;BME280;9537;45.594;9.294;2022-11-27T05:43:11;100894.81;;;2.00;87.00